Список аэропортов
Фактическая погода:

25 июня, 00:00
Температура: +17°C (+17.0*)
Ветер: восточный 2 м/с
Давление: *761 мм
неб.
Время (МСК)Темп. СВетерВлажностьДавлениеОблачностьОсадки
21:00+20СЗ, 2 м/с73%1015 гПаясно
22:00+20СЗ, 2 м/с79%1015 гПаясно
23:00+19СЗ, 2 м/с83%1015 гПаясно
25 июня
00:00+18СЗ, 2 м/с86%1015 гПаясно
01:00+18СЗ, 1 м/с89%1015 гПаясно
02:00+17С, 1 м/с92%1015 гПаясно
03:00+17С, 1 м/с93%1015 гПаясно
04:00+17СВ, 2 м/с95%1015 гПаясно
05:00+16СВ, 2 м/с95%1015 гПаясно
06:00+17С, 2 м/с90%1015 гПаясно
07:00+20С, 3 м/с76%1015 гПаясно
08:00+23С, 5 м/с66%1015 гПаясно
09:00+24С, 5 м/с59%1015 гПаясно
10:00+25С, 4 м/с55%1015 гПас прояснениями
11:00+26С, 4 м/с53%1015 гПаоблачно
12:00+27С, 5 м/с51%1014 гПаоблачно
13:00+28С, 5 м/с49%1014 гПаоблачно
14:00+28С, 5 м/с48%1014 гПаоблачно
15:00+28СЗ, 7 м/с49%1013 гПаоблачно
16:00+28СЗ, 8 м/с50%1013 гПаоблачно
17:00+27СЗ, 8 м/с50%1013 гПас прояснениями
18:00+26С, 8 м/с53%1013 гПаоблачно
19:00+25С, 7 м/с56%1013 гПаоблачно
20:00+24С, 7 м/с60%1012 гПас прояснениями
21:00+24С, 6 м/с61%1012 гПаясно
22:00+24С, 5 м/с59%1012 гПаясно
23:00+23С, 5 м/с60%1012 гПаясно
26 июня
00:00+23С, 5 м/с61%1011 гПаясно
01:00+23С, 5 м/с67%1012 гПаоблачнодождь
02:00+21С, 4 м/с80%1011 гПаоблачнодождь
03:00+21С, 4 м/с83%1011 гПаоблачнодождь
04:00+21С, 5 м/с82%1010 гПас прояснениямидождь
05:00+20С, 5 м/с83%1010 гПамалооблачно
06:00+20С, 4 м/с81%1010 гПаясно
07:00+22С, 5 м/с70%1010 гПас прояснениями
08:00+23С, 6 м/с59%1010 гПаоблачно
09:00+24СВ, 5 м/с58%1009 гПамалооблачно
10:00+26СВ, 4 м/с56%1009 гПаясно
11:00+28С, 3 м/с55%1009 гПаясно
12:00+29С, 3 м/с53%1009 гПаясно
13:00+31С, 3 м/с51%1009 гПаясно
14:00+32С, 4 м/с49%1008 гПаясно
15:00+32СЗ, 4 м/с47%1007 гПаоблачно
16:00+32СЗ, 4 м/с46%1007 гПаоблачно
17:00+32СЗ, 4 м/с45%1007 гПаоблачно
18:00+31СЗ, 5 м/с44%1006 гПаоблачно
19:00+30СЗ, 4 м/с44%1006 гПаоблачно
20:00+29СЗ, 2 м/с51%1006 гПас прояснениями
21:00+27СЗ, 1 м/с63%1006 гПамалооблачно